TimeCDT,TemperatureF,Dew PointF,Humidity,Sea Level PressureIn,VisibilityMPH,Wind Direction,Wind SpeedMPH,Gust SpeedMPH,PrecipitationIn,Events,Conditions,WindDirDegrees,DateUTC
12:53 AM,75.0,69.1,82,29.90,10.0,East,4.6,-,N/A,,Clear,80,2013-08-28 05:53:00
1:53 AM,77.0,66.9,71,29.91,10.0,SSE,4.6,-,N/A,,Clear,150,2013-08-28 06:53:00
2:53 AM,78.1,66.9,68,29.90,10.0,SSE,4.6,-,N/A,,Clear,160,2013-08-28 07:53:00
3:53 AM,78.1,68.0,71,29.90,10.0,South,6.9,-,N/A,,Clear,170,2013-08-28 08:53:00
4:53 AM,77.0,66.9,71,29.91,10.0,South,8.1,-,N/A,,Clear,180,2013-08-28 09:53:00
5:53 AM,77.0,68.0,74,29.91,10.0,Calm,Calm,-,N/A,,Clear,0,2013-08-28 10:53:00
6:53 AM,75.0,68.0,79,29.95,10.0,Calm,Calm,-,N/A,,Clear,0,2013-08-28 11:53:00
7:53 AM,75.9,69.1,79,29.96,10.0,Calm,Calm,-,N/A,,Clear,0,2013-08-28 12:53:00
8:53 AM,77.0,69.1,76,29.97,10.0,SSE,4.6,-,N/A,,Clear,160,2013-08-28 13:53:00
9:53 AM,77.0,69.1,76,29.97,10.0,SSE,4.6,-,N/A,,Partly Cloudy,160,2013-08-28 14:53:00
10:53 AM,80.1,71.1,74,29.97,10.0,SE,9.2,-,N/A,,Clear,140,2013-08-28 15:53:00
11:53 AM,82.9,71.1,67,29.96,10.0,ESE,5.8,-,N/A,,Clear,120,2013-08-28 16:53:00
12:53 PM,86.0,71.1,61,29.95,10.0,ESE,9.2,-,N/A,,Clear,120,2013-08-28 17:53:00
1:53 PM,89.1,70.0,53,29.95,10.0,SSE,8.1,-,N/A,,Clear,160,2013-08-28 18:53:00
2:53 PM,90.0,68.0,48,29.93,10.0,SE,9.2,-,N/A,,Clear,140,2013-08-28 19:53:00
3:53 PM,91.0,66.9,45,29.93,10.0,SE,6.9,-,N/A,,Clear,130,2013-08-28 20:53:00
4:53 PM,90.0,68.0,48,29.93,10.0,SSE,9.2,17.3,N/A,,Clear,150,2013-08-28 21:53:00
5:53 PM,89.1,66.9,48,29.92,10.0,SE,11.5,-,N/A,,Clear,130,2013-08-28 22:53:00
6:53 PM,87.1,68.0,53,29.92,10.0,SE,11.5,-,N/A,,Clear,130,2013-08-28 23:53:00
7:53 PM,84.0,66.9,56,29.92,10.0,ESE,4.6,-,N/A,,Clear,110,2013-08-29 00:53:00
8:53 PM,79.0,66.9,66,29.93,10.0,ESE,5.8,-,N/A,,Clear,110,2013-08-29 01:53:00
9:53 PM,78.1,66.0,66,29.94,10.0,ESE,5.8,-,N/A,,Clear,120,2013-08-29 02:53:00
10:53 PM,78.1,66.0,66,29.94,10.0,SE,6.9,-,N/A,,Clear,130,2013-08-29 03:53:00
11:53 PM,75.9,66.0,71,29.93,10.0,SE,5.8,-,N/A,,Clear,130,2013-08-29 04:53:00